Time;durP1;ratioP1;P1;durP2;ratioP2;P2;SDS_P1;SDS_P2;PMS_P1;PMS_P2;Temp;Humidity;BMP_temperature;BMP_pressure;BME280_temperature;BME280_humidity;BME280_pressure;Samples;Min_cycle;Max_cycle;Signal;HPM_P1;HPM_P2
2022/03/27 00:00:39;;;;;;;14.37;8.87;;;7.50;98.10;;;;;;5070111;28;20268;-73
2022/03/27 00:03:07;;;;;;;13.60;8.97;;;7.30;98.50;;;;;;5066298;28;20184;-73
2022/03/27 00:05:34;;;;;;;14.63;9.40;;;7.20;99.10;;;;;;5070348;28;20264;-74
2022/03/27 00:07:59;;;;;;;14.70;9.33;;;7.20;99.60;;;;;;5072782;28;20179;-73
2022/03/27 00:10:26;;;;;;;15.40;9.67;;;7.30;99.80;;;;;;5066963;28;20194;-72
2022/03/27 00:12:51;;;;;;;14.10;9.90;;;7.30;99.90;;;;;;5069618;28;20329;-73
2022/03/27 00:15:17;;;;;;;15.03;10.30;;;7.30;99.90;;;;;;5067195;28;20282;-73
2022/03/27 00:17:43;;;;;;;12.33;8.87;;;7.30;99.90;;;;;;5061756;28;20183;-72
2022/03/27 00:20:09;;;;;;;13.03;9.03;;;7.30;99.90;;;;;;5070127;28;20340;-73
2022/03/27 00:22:38;;;;;;;13.20;9.37;;;7.20;99.90;;;;;;5068283;28;20233;-74
2022/03/27 00:25:08;;;;;;;17.07;9.97;;;7.20;99.90;;;;;;5069358;28;20195;-73
2022/03/27 00:27:34;;;;;;;15.00;9.60;;;7.20;99.90;;;;;;5068150;28;20187;-73
2022/03/27 00:30:01;;;;;;;15.07;9.83;;;7.10;99.90;;;;;;5066344;28;20565;-73
2022/03/27 00:32:26;;;;;;;13.43;9.07;;;7.00;99.90;;;;;;5071473;28;20633;-74
2022/03/27 00:34:53;;;;;;;12.93;8.63;;;7.00;99.90;;;;;;5070773;28;20289;-73
2022/03/27 00:37:19;;;;;;;13.87;9.23;;;7.00;99.90;;;;;;5069981;28;20540;-74
2022/03/27 00:39:45;;;;;;;13.13;9.30;;;7.10;99.90;;;;;;5067647;28;20171;-74
2022/03/27 00:42:10;;;;;;;13.27;9.03;;;7.10;99.90;;;;;;5057218;28;20175;-74
2022/03/27 00:44:38;;;;;;;16.20;9.73;;;7.00;99.90;;;;;;5062914;28;20563;-73
2022/03/27 00:47:05;;;;;;;12.80;9.97;;;6.80;99.90;;;;;;5065586;28;20174;-73
2022/03/27 00:49:34;;;;;;;13.77;10.43;;;6.60;99.90;;;;;;5080155;28;20182;-73
2022/03/27 00:52:01;;;;;;;14.33;9.57;;;6.50;99.90;;;;;;5059521;28;20175;-73
2022/03/27 00:54:27;;;;;;;17.73;10.13;;;6.40;99.90;;;;;;5067038;28;20196;-73
2022/03/27 00:56:53;;;;;;;15.77;10.80;;;6.30;99.90;;;;;;5065059;28;20175;-73
2022/03/27 00:59:18;;;;;;;18.97;9.63;;;6.20;99.90;;;;;;5057370;28;20550;-73
2022/03/27 01:01:44;;;;;;;16.30;9.20;;;6.10;99.90;;;;;;5061152;28;20175;-73
2022/03/27 01:04:10;;;;;;;14.50;10.27;;;6.10;99.90;;;;;;5069708;28;20172;-72
2022/03/27 01:06:43;;;;;;;16.57;10.00;;;6.00;99.90;;;;;;5069277;28;20191;-72
2022/03/27 01:12:17;;;;;;;14.23;9.37;;;5.90;99.90;;;;;;5062393;28;20198;-73
2022/03/27 01:14:44;;;;;;;15.53;9.43;;;5.90;99.90;;;;;;5067692;28;20195;-73
2022/03/27 01:17:13;;;;;;;14.77;9.73;;;5.90;99.90;;;;;;5060904;28;20270;-73
2022/03/27 01:19:46;;;;;;;15.93;9.60;;;5.90;99.90;;;;;;5068993;28;20187;-73
2022/03/27 01:22:13;;;;;;;12.93;9.27;;;6.00;99.90;;;;;;5066326;28;20237;-73
2022/03/27 01:24:39;;;;;;;13.33;9.27;;;6.00;99.90;;;;;;5060090;28;20259;-72
2022/03/27 01:27:05;;;;;;;14.37;8.77;;;5.90;99.90;;;;;;5065749;28;20191;-74
2022/03/27 01:29:31;;;;;;;18.30;10.93;;;5.90;99.90;;;;;;5070812;28;20610;-73
2022/03/27 01:31:57;;;;;;;13.67;10.47;;;5.80;99.90;;;;;;5066475;28;20178;-73
2022/03/27 01:34:23;;;;;;;15.50;10.03;;;5.70;99.90;;;;;;5060873;28;20208;-73
2022/03/27 01:36:49;;;;;;;14.00;10.00;;;5.60;99.90;;;;;;5076736;28;20178;-72
2022/03/27 01:39:16;;;;;;;14.70;10.50;;;5.50;99.90;;;;;;5061165;28;20190;-72
2022/03/27 01:41:42;;;;;;;12.27;9.00;;;5.40;99.90;;;;;;5070589;28;20170;-73
2022/03/27 01:44:10;;;;;;;15.23;9.70;;;5.40;99.90;;;;;;5063329;28;20194;-73
2022/03/27 01:46:37;;;;;;;11.90;9.20;;;5.40;99.90;;;;;;5061263;28;20203;-73
2022/03/27 01:49:05;;;;;;;15.23;10.07;;;5.30;99.90;;;;;;5060687;28;20175;-73
2022/03/27 01:51:31;;;;;;;16.30;10.40;;;5.30;99.90;;;;;;5056965;28;20202;-73
2022/03/27 01:53:58;;;;;;;13.37;9.33;;;5.20;99.90;;;;;;5056232;28;20210;-73
2022/03/27 01:56:24;;;;;;;10.83;8.70;;;5.20;99.90;;;;;;5056861;28;20212;-73
2022/03/27 01:58:50;;;;;;;15.00;9.27;;;5.20;99.90;;;;;;5056582;28;20195;-73
2022/03/27 02:01:16;;;;;;;16.47;10.00;;;5.20;99.90;;;;;;5056503;28;20666;-73
2022/03/27 02:03:42;;;;;;;17.20;10.50;;;5.20;99.90;;;;;;5056507;28;20184;-73
2022/03/27 02:06:08;;;;;;;13.10;9.83;;;5.10;99.90;;;;;;5065424;28;20293;-73
2022/03/27 02:08:35;;;;;;;17.10;9.80;;;5.10;99.90;;;;;;5057833;28;20216;-74
2022/03/27 02:11:05;;;;;;;15.97;10.00;;;5.10;99.90;;;;;;5064065;28;20265;-73
2022/03/27 02:13:30;;;;;;;18.23;10.53;;;5.10;99.90;;;;;;5056449;28;20679;-73
2022/03/27 02:15:58;;;;;;;18.47;10.60;;;5.20;99.90;;;;;;5060405;28;20287;-73
2022/03/27 02:18:28;;;;;;;14.33;10.43;;;5.10;99.90;;;;;;5061904;28;20175;-73
2022/03/27 02:20:55;;;;;;;17.53;11.20;;;5.00;99.90;;;;;;5062821;28;20176;-73
2022/03/27 02:23:22;;;;;;;13.20;9.77;;;4.90;99.90;;;;;;5065500;28;20175;-73
2022/03/27 02:25:48;;;;;;;16.70;10.77;;;4.90;99.90;;;;;;5069537;28;20296;-73
2022/03/27 02:28:13;;;;;;;11.70;10.03;;;4.90;99.90;;;;;;5066652;28;20667;-73
2022/03/27 02:30:39;;;;;;;17.47;10.23;;;4.80;99.90;;;;;;5065385;28;20180;-70
2022/03/27 02:33:05;;;;;;;14.87;9.50;;;4.80;99.90;;;;;;5064032;28;20274;-70
2022/03/27 02:35:30;;;;;;;14.10;9.70;;;4.80;99.90;;;;;;5062671;28;22223;-70
2022/03/27 02:37:56;;;;;;;14.03;10.60;;;4.80;99.90;;;;;;5065640;28;20202;-70
2022/03/27 02:40:22;;;;;;;13.80;9.97;;;4.80;99.90;;;;;;5057394;28;20528;-71
2022/03/27 02:42:48;;;;;;;18.93;10.33;;;4.70;99.90;;;;;;5072098;28;20182;-71
2022/03/27 02:45:14;;;;;;;12.93;10.13;;;4.70;99.90;;;;;;5070463;28;20199;-71
2022/03/27 02:47:39;;;;;;;12.43;9.43;;;4.70;99.90;;;;;;5063939;28;20179;-71
2022/03/27 02:50:06;;;;;;;15.57;9.73;;;4.70;99.90;;;;;;5063815;28;20846;-71
2022/03/27 02:52:32;;;;;;;16.00;10.57;;;4.80;99.90;;;;;;5068812;28;20554;-70
2022/03/27 02:54:58;;;;;;;15.70;11.07;;;4.90;99.90;;;;;;5064710;28;20628;-70
2022/03/27 02:57:24;;;;;;;13.17;10.03;;;4.80;99.90;;;;;;5069447;28;20258;-71
2022/03/27 02:59:53;;;;;;;12.60;9.60;;;4.70;99.90;;;;;;5075763;28;20264;-71
2022/03/27 03:02:20;;;;;;;18.13;10.63;;;4.70;99.90;;;;;;5073940;28;20179;-71
2022/03/27 03:04:46;;;;;;;19.77;10.63;;;4.60;99.90;;;;;;5062535;28;20226;-71
2022/03/27 03:07:14;;;;;;;10.23;8.93;;;4.60;99.90;;;;;;5066966;28;20175;-70
2022/03/27 03:09:41;;;;;;;13.83;9.93;;;4.50;99.90;;;;;;5072149;28;20224;-70
2022/03/27 03:12:07;;;;;;;13.43;9.93;;;4.50;99.90;;;;;;5073092;28;20175;-70
2022/03/27 03:14:33;;;;;;;12.87;9.93;;;4.50;99.90;;;;;;5072816;28;20276;-71
2022/03/27 03:17:01;;;;;;;13.07;9.30;;;4.50;99.90;;;;;;5066748;28;20187;-70
2022/03/27 03:19:28;;;;;;;12.60;9.50;;;4.50;99.90;;;;;;5067189;28;20180;-70
2022/03/27 03:21:54;;;;;;;12.40;9.23;;;4.50;99.90;;;;;;5065702;28;20623;-70
2022/03/27 03:24:20;;;;;;;14.03;9.50;;;4.50;99.90;;;;;;5062385;28;20213;-70
2022/03/27 03:26:47;;;;;;;13.70;10.23;;;4.50;99.90;;;;;;5074993;28;20705;-70
2022/03/27 03:29:13;;;;;;;12.37;9.63;;;4.40;99.90;;;;;;5073292;28;20175;-70
2022/03/27 03:31:39;;;;;;;18.87;10.57;;;4.30;99.90;;;;;;5072854;28;20171;-71
2022/03/27 03:34:05;;;;;;;17.07;11.40;;;4.30;99.90;;;;;;5063475;28;20203;-71
2022/03/27 03:36:30;;;;;;;12.77;9.57;;;4.30;99.90;;;;;;5060532;28;20278;-71
2022/03/27 03:38:56;;;;;;;13.80;11.10;;;4.20;99.90;;;;;;5062576;28;20175;-71
2022/03/27 03:41:22;;;;;;;14.77;10.03;;;4.20;99.90;;;;;;5060183;28;20558;-71
2022/03/27 03:43:47;;;;;;;16.83;10.07;;;4.20;99.90;;;;;;5064977;28;20171;-71
2022/03/27 03:46:13;;;;;;;14.40;9.73;;;4.20;99.90;;;;;;5061417;28;20277;-71
2022/03/27 03:48:39;;;;;;;13.50;10.60;;;4.20;99.90;;;;;;5068802;28;20187;-71
2022/03/27 03:51:05;;;;;;;13.60;11.07;;;4.20;99.90;;;;;;5065970;28;20224;-71
2022/03/27 03:53:31;;;;;;;11.53;9.13;;;4.20;99.90;;;;;;5072190;28;20290;-71
2022/03/27 03:55:56;;;;;;;15.80;9.40;;;4.10;99.90;;;;;;5063380;28;20195;-71
2022/03/27 03:58:22;;;;;;;15.77;10.60;;;4.20;99.90;;;;;;5065632;28;20179;-70
2022/03/27 04:00:48;;;;;;;17.23;10.17;;;4.10;99.90;;;;;;5063069;28;20182;-70
2022/03/27 04:03:14;;;;;;;18.47;10.87;;;4.10;99.90;;;;;;5066046;28;20186;-71
2022/03/27 04:05:40;;;;;;;12.80;10.70;;;4.10;99.90;;;;;;5062423;28;20264;-71
2022/03/27 04:08:05;;;;;;;12.40;9.30;;;4.10;99.90;;;;;;5066415;28;20227;-71
2022/03/27 04:10:31;;;;;;;17.87;10.43;;;4.10;99.90;;;;;;5064754;28;20183;-71
2022/03/27 04:12:56;;;;;;;12.77;10.10;;;4.10;99.90;;;;;;5061611;28;20207;-71
2022/03/27 04:15:22;;;;;;;13.67;9.57;;;4.10;99.90;;;;;;5063275;28;20214;-71
2022/03/27 04:17:51;;;;;;;12.30;9.90;;;4.00;99.90;;;;;;5064083;28;21055;-71
2022/03/27 04:20:17;;;;;;;12.73;9.93;;;4.00;99.90;;;;;;5063461;28;20176;-71
2022/03/27 04:22:44;;;;;;;13.40;9.70;;;3.90;99.90;;;;;;5069989;28;20211;-72
2022/03/27 04:25:11;;;;;;;15.20;10.07;;;3.90;99.90;;;;;;5062092;28;20271;-71
2022/03/27 04:27:37;;;;;;;13.33;11.20;;;3.90;99.90;;;;;;5062482;28;20589;-71
2022/03/27 04:30:08;;;;;;;14.17;10.37;;;3.90;99.90;;;;;;5082705;28;20187;-71
2022/03/27 04:32:34;;;;;;;12.90;10.97;;;3.90;99.90;;;;;;5063954;28;20214;-71
2022/03/27 04:35:00;;;;;;;14.10;11.33;;;3.90;99.90;;;;;;5060921;28;20211;-71
2022/03/27 04:37:25;;;;;;;12.00;10.40;;;3.90;99.90;;;;;;5068001;28;20254;-70
2022/03/27 04:39:51;;;;;;;13.90;10.07;;;3.90;99.90;;;;;;5062867;28;20655;-70
2022/03/27 04:42:17;;;;;;;16.27;11.90;;;3.90;99.90;;;;;;5070318;28;20178;-70
2022/03/27 04:44:43;;;;;;;13.90;10.50;;;3.80;99.90;;;;;;5069072;28;20298;-70
2022/03/27 04:47:09;;;;;;;18.47;11.77;;;3.80;99.90;;;;;;5068380;28;20258;-71
2022/03/27 04:49:34;;;;;;;19.57;13.03;;;3.80;99.90;;;;;;5069508;28;20175;-70
2022/03/27 04:52:00;;;;;;;17.40;11.80;;;3.90;99.90;;;;;;5062896;28;20281;-71
2022/03/27 04:54:25;;;;;;;18.47;11.97;;;3.90;99.90;;;;;;5060630;28;20215;-71
2022/03/27 04:56:51;;;;;;;17.33;11.50;;;3.80;99.90;;;;;;5054635;28;20673;-70
2022/03/27 04:59:17;;;;;;;18.30;11.60;;;3.80;99.90;;;;;;5060840;28;20179;-71
2022/03/27 05:01:43;;;;;;;16.13;12.33;;;3.80;99.90;;;;;;5061938;28;20681;-69
2022/03/27 05:04:09;;;;;;;20.10;12.23;;;3.80;99.90;;;;;;5056289;28;20191;-71
2022/03/27 05:06:36;;;;;;;21.30;12.97;;;3.80;99.90;;;;;;5066816;28;20258;-71
2022/03/27 05:09:01;;;;;;;20.43;12.67;;;3.80;99.90;;;;;;5064579;28;20183;-70
2022/03/27 05:11:28;;;;;;;16.07;11.60;;;3.80;99.90;;;;;;5059760;28;20242;-70
2022/03/27 05:13:55;;;;;;;20.07;12.50;;;3.80;99.90;;;;;;5064347;28;20213;-70
2022/03/27 05:16:20;;;;;;;18.20;12.97;;;3.90;99.90;;;;;;5065435;28;20199;-70
2022/03/27 05:18:46;;;;;;;16.40;12.30;;;3.80;99.90;;;;;;5065002;28;20183;-71
2022/03/27 05:21:12;;;;;;;18.13;13.20;;;3.80;99.90;;;;;;5059592;28;20209;-71
2022/03/27 05:23:37;;;;;;;16.43;12.17;;;3.90;99.90;;;;;;5066287;28;20226;-71
2022/03/27 05:26:03;;;;;;;18.77;11.93;;;3.80;99.90;;;;;;5065293;28;20207;-71
2022/03/27 05:28:30;;;;;;;18.80;11.77;;;3.90;99.90;;;;;;5081726;28;20171;-72
2022/03/27 05:30:56;;;;;;;13.53;11.63;;;4.00;99.90;;;;;;5064596;28;20250;-71
2022/03/27 05:33:22;;;;;;;15.13;10.70;;;4.00;99.90;;;;;;5060641;28;20223;-71
2022/03/27 05:35:48;;;;;;;18.47;12.43;;;4.10;99.90;;;;;;5069424;28;20190;-71
2022/03/27 05:38:14;;;;;;;13.83;10.77;;;4.20;99.90;;;;;;5079020;28;20188;-71
2022/03/27 05:40:40;;;;;;;17.40;11.70;;;4.30;99.90;;;;;;5067927;28;20175;-71
2022/03/27 05:43:07;;;;;;;15.40;11.43;;;4.40;99.90;;;;;;5062802;28;20179;-70
2022/03/27 05:45:35;;;;;;;15.00;11.30;;;4.40;99.90;;;;;;5063154;28;20241;-71
2022/03/27 05:48:02;;;;;;;14.60;11.57;;;4.40;99.90;;;;;;5064642;28;20179;-71
2022/03/27 05:50:27;;;;;;;15.07;10.60;;;4.50;99.90;;;;;;5062529;28;20266;-71
2022/03/27 05:52:53;;;;;;;15.77;10.97;;;4.60;99.90;;;;;;5061452;28;20325;-71
2022/03/27 05:55:20;;;;;;;14.20;10.70;;;4.70;99.90;;;;;;5063999;28;20191;-70
2022/03/27 05:57:47;;;;;;;13.87;10.47;;;4.80;99.90;;;;;;5060645;28;20195;-71
2022/03/27 06:00:16;;;;;;;19.17;10.83;;;4.80;99.90;;;;;;5067496;28;20276;-70
2022/03/27 06:02:43;;;;;;;14.40;11.43;;;4.90;99.90;;;;;;5065033;28;20341;-69
2022/03/27 06:05:09;;;;;;;17.13;10.90;;;5.10;99.90;;;;;;5066734;28;20199;-70
2022/03/27 06:07:46;;;;;;;14.60;11.53;;;5.00;99.90;;;;;;5066792;28;20673;-70
2022/03/27 06:10:13;;;;;;;15.33;10.93;;;5.00;99.90;;;;;;5060355;28;20260;-70
2022/03/27 06:12:39;;;;;;;15.23;11.10;;;5.10;99.90;;;;;;5063774;28;20276;-70
2022/03/27 06:15:05;;;;;;;13.00;11.03;;;5.10;99.90;;;;;;5056628;28;20609;-70
2022/03/27 06:17:44;;;;;;;16.87;11.67;;;5.10;99.90;;;;;;5067982;28;20175;-70
2022/03/27 06:20:12;;;;;;;15.83;11.70;;;5.20;99.90;;;;;;5067161;28;20175;-70
2022/03/27 06:22:39;;;;;;;17.57;11.63;;;5.30;99.90;;;;;;5070053;28;20183;-70
2022/03/27 06:25:06;;;;;;;16.20;11.57;;;5.40;99.90;;;;;;5066677;28;20683;-71
2022/03/27 06:27:32;;;;;;;18.80;12.63;;;5.50;99.90;;;;;;5067749;28;20541;-72
2022/03/27 06:29:57;;;;;;;14.93;12.57;;;5.50;99.90;;;;;;5068216;28;20183;-71
2022/03/27 06:32:26;;;;;;;16.77;11.83;;;5.60;99.90;;;;;;5070856;28;20182;-74
2022/03/27 06:34:55;;;;;;;15.80;11.77;;;5.70;99.90;;;;;;5068442;28;20679;-76
2022/03/27 06:37:21;;;;;;;16.97;12.70;;;5.80;99.90;;;;;;5079752;28;20184;-74
2022/03/27 06:39:48;;;;;;;14.83;11.87;;;5.90;99.90;;;;;;5069872;28;20179;-72
2022/03/27 06:42:14;;;;;;;13.23;11.57;;;6.00;99.90;;;;;;5061276;28;20259;-72
2022/03/27 06:44:39;;;;;;;17.90;11.80;;;6.00;99.90;;;;;;5066918;28;20278;-73
2022/03/27 06:47:07;;;;;;;19.00;11.50;;;6.10;99.90;;;;;;5066505;28;20180;-73
2022/03/27 06:49:32;;;;;;;13.70;11.83;;;6.10;99.90;;;;;;5064959;28;20187;-73
2022/03/27 06:51:58;;;;;;;16.27;11.23;;;6.20;99.90;;;;;;5068097;28;20666;-72
2022/03/27 06:54:24;;;;;;;15.70;12.57;;;6.30;99.90;;;;;;5062730;28;20204;-73
2022/03/27 06:56:49;;;;;;;15.63;11.67;;;6.40;99.90;;;;;;5063896;28;20176;-73
2022/03/27 06:59:15;;;;;;;17.47;12.00;;;6.50;99.90;;;;;;5063786;28;20546;-73
2022/03/27 07:04:25;;;;;;;17.67;12.30;;;6.70;99.90;;;;;;5070864;28;20711;-74
2022/03/27 07:06:51;;;;;;;15.80;12.37;;;6.80;99.90;;;;;;5071118;28;20187;-73
2022/03/27 07:09:18;;;;;;;15.47;12.17;;;6.90;99.90;;;;;;5070332;28;20552;-75
2022/03/27 07:11:45;;;;;;;14.43;10.73;;;6.90;99.90;;;;;;5059720;28;20198;-75
2022/03/27 07:14:12;;;;;;;12.77;10.73;;;7.00;99.90;;;;;;5063177;28;20549;-75
2022/03/27 07:16:38;;;;;;;15.67;11.80;;;7.10;99.90;;;;;;5071343;28;21169;-75
2022/03/27 07:19:04;;;;;;;13.83;11.77;;;7.30;99.90;;;;;;5064529;28;20188;-75
2022/03/27 07:21:30;;;;;;;16.27;12.07;;;7.40;99.90;;;;;;5063276;28;20172;-74
2022/03/27 07:23:55;;;;;;;21.37;11.80;;;7.50;99.90;;;;;;5064855;28;20647;-74
2022/03/27 07:26:22;;;;;;;16.07;11.73;;;7.60;99.90;;;;;;5061800;28;20239;-74
2022/03/27 07:28:48;;;;;;;15.00;11.67;;;7.70;99.90;;;;;;5070823;28;20186;-74
2022/03/27 07:31:13;;;;;;;15.90;12.03;;;7.80;99.90;;;;;;5071761;28;20183;-73
2022/03/27 07:33:39;;;;;;;15.80;12.07;;;8.00;99.90;;;;;;5067562;28;20554;-73
2022/03/27 07:36:05;;;;;;;14.25;11.75;;;8.10;99.90;;;;;;5073656;28;20203;-72
2022/03/27 07:38:31;;;;;;;15.27;10.85;;;8.10;99.90;;;;;;5070099;28;20545;-72
2022/03/27 07:40:59;;;;;;;15.10;11.68;;;8.30;99.90;;;;;;5070172;28;20238;-72
2022/03/27 07:43:25;;;;;;;13.82;11.55;;;8.40;99.90;;;;;;5069227;28;20172;-72
2022/03/27 07:45:50;;;;;;;14.43;12.05;;;8.50;99.90;;;;;;5067756;28;20286;-72
2022/03/27 07:48:16;;;;;;;12.13;10.18;;;8.50;99.90;;;;;;5059016;28;20275;-72
2022/03/27 07:50:42;;;;;;;16.20;11.00;;;8.70;99.90;;;;;;5061908;28;20446;-72
2022/03/27 07:53:08;;;;;;;19.90;10.95;;;8.80;99.90;;;;;;5059383;28;20206;-72
2022/03/27 07:55:34;;;;;;;14.15;10.70;;;8.90;99.90;;;;;;5059967;28;20191;-72
2022/03/27 07:58:00;;;;;;;15.60;11.55;;;9.00;99.90;;;;;;5059847;28;20267;-72
2022/03/27 08:00:30;;;;;;;12.68;10.68;;;9.10;99.90;;;;;;5078593;28;20186;-72
2022/03/27 08:02:56;;;;;;;17.02;11.13;;;9.20;99.90;;;;;;5058525;28;20746;-73
2022/03/27 08:05:21;;;;;;;15.32;10.95;;;9.40;99.90;;;;;;5064333;28;20202;-73
2022/03/27 08:07:47;;;;;;;12.85;10.88;;;9.50;99.90;;;;;;5063951;28;20183;-72
2022/03/27 08:10:15;;;;;;;12.95;10.63;;;9.60;99.90;;;;;;5075269;28;20206;-72
2022/03/27 08:12:42;;;;;;;12.55;10.80;;;9.70;99.90;;;;;;5062632;28;20226;-71
2022/03/27 08:15:08;;;;;;;14.85;11.52;;;9.80;99.90;;;;;;5057446;28;20199;-73
2022/03/27 08:17:34;;;;;;;15.60;11.77;;;9.90;99.90;;;;;;5057558;28;20180;-71
2022/03/27 08:20:01;;;;;;;12.15;10.65;;;10.00;99.90;;;;;;5061671;28;20172;-71
2022/03/27 08:22:26;;;;;;;14.43;11.38;;;10.10;99.90;;;;;;5059039;28;20176;-73
2022/03/27 08:24:52;;;;;;;13.27;10.85;;;10.20;99.90;;;;;;5058712;28;20210;-71
2022/03/27 08:27:20;;;;;;;19.35;10.50;;;10.30;99.90;;;;;;5054648;28;20184;-72
2022/03/27 08:29:46;;;;;;;11.43;10.23;;;10.40;99.90;;;;;;5056910;28;20171;-72
2022/03/27 08:32:14;;;;;;;12.75;10.45;;;10.50;99.90;;;;;;5055061;28;20342;-72
2022/03/27 08:34:42;;;;;;;12.30;9.55;;;10.70;99.90;;;;;;5057351;28;20195;-73
2022/03/27 08:37:10;;;;;;;18.75;10.05;;;10.80;99.90;;;;;;5054969;28;20182;-73
2022/03/27 08:39:37;;;;;;;11.93;10.15;;;11.00;99.90;;;;;;5055549;28;20720;-74
2022/03/27 08:42:03;;;;;;;12.32;9.95;;;11.20;99.90;;;;;;5055722;28;20191;-73
2022/03/27 08:44:29;;;;;;;12.45;9.98;;;11.40;99.90;;;;;;5057987;28;20207;-73
2022/03/27 08:46:57;;;;;;;12.40;9.85;;;11.60;99.90;;;;;;5055900;28;20185;-73
2022/03/27 08:49:53;;;;;;;14.50;10.90;;;11.70;99.90;;;;;;5058184;28;20219;-73
2022/03/27 08:52:21;;;;;;;12.20;10.10;;;11.80;99.90;;;;;;5056287;28;20176;-74
2022/03/27 08:55:06;;;;;;;14.93;10.05;;;12.00;99.90;;;;;;5056617;28;20252;-72
2022/03/27 08:57:57;;;;;;;12.07;10.02;;;12.20;99.90;;;;;;5066818;28;20445;-73
2022/03/27 09:00:25;;;;;;;11.48;9.50;;;12.60;99.90;;;;;;5057807;28;20203;-74
2022/03/27 09:02:51;;;;;;;12.35;10.30;;;13.70;99.90;;;;;;5068211;28;20195;-73
2022/03/27 09:05:20;;;;;;;11.90;9.80;;;16.00;99.90;;;;;;5063793;28;20203;-74
2022/03/27 09:07:46;;;;;;;14.55;11.07;;;18.60;91.50;;;;;;5058665;28;20646;-72
2022/03/27 09:10:12;;;;;;;13.07;9.98;;;20.90;75.20;;;;;;5066729;28;20187;-73
2022/03/27 09:12:38;;;;;;;11.15;9.93;;;23.00;63.90;;;;;;5060072;28;20225;-73
2022/03/27 09:15:08;;;;;;;9.82;8.73;;;24.70;55.50;;;;;;5055792;28;20210;-73
2022/03/27 09:17:55;;;;;;;10.90;9.82;;;26.10;52.10;;;;;;5061096;28;20183;-74
2022/03/27 09:20:48;;;;;;;9.77;8.70;;;27.00;48.30;;;;;;5063678;28;20171;-72
2022/03/27 09:23:25;;;;;;;11.18;9.43;;;28.10;46.10;;;;;;5055867;28;20176;-72
2022/03/27 09:26:00;;;;;;;10.73;9.73;;;28.60;44.30;;;;;;5059030;28;20256;-74
2022/03/27 09:28:42;;;;;;;11.00;9.73;;;29.10;43.50;;;;;;5068025;28;20181;-72
2022/03/27 09:31:18;;;;;;;9.60;8.63;;;29.90;41.50;;;;;;5057128;28;20329;-74
2022/03/27 09:33:49;;;;;;;9.18;8.38;;;30.70;40.90;;;;;;5055834;28;20333;-73
2022/03/27 09:36:34;;;;;;;10.10;8.88;;;31.40;39.70;;;;;;5059564;28;20249;-73
2022/03/27 09:38:59;;;;;;;8.93;7.80;;;31.90;38.30;;;;;;5061103;28;20876;-72
2022/03/27 09:42:16;;;;;;;10.02;8.98;;;32.40;38.50;;;;;;5058756;28;20206;-72
2022/03/27 09:44:42;;;;;;;12.60;9.93;;;32.80;36.00;;;;;;5025128;28;20292;-72
2022/03/27 09:47:10;;;;;;;12.48;9.60;;;31.60;36.70;;;;;;5025502;28;20275;-74
2022/03/27 09:49:37;;;;;;;9.93;9.05;;;31.70;36.80;;;;;;5051299;28;20183;-69
2022/03/27 09:52:08;;;;;;;10.40;9.30;;;32.10;37.10;;;;;;5064312;28;20183;-71
2022/03/27 09:54:49;;;;;;;9.05;8.25;;;32.80;36.70;;;;;;5064394;28;20210;-70
2022/03/27 09:57:27;;;;;;;9.43;8.52;;;33.90;35.10;;;;;;5061067;28;20278;-70
2022/03/27 09:59:55;;;;;;;12.18;9.98;;;33.90;34.10;;;;;;5062332;28;20282;-71
2022/03/27 10:02:23;;;;;;;13.60;10.07;;;34.30;34.10;;;;;;5062199;28;20255;-70
2022/03/27 10:05:03;;;;;;;14.40;10.43;;;33.80;33.90;;;;;;5064114;28;20204;-71
2022/03/27 10:07:36;;;;;;;10.93;9.63;;;33.60;34.20;;;;;;5067174;28;20175;-71
2022/03/27 10:10:03;;;;;;;11.30;9.38;;;33.30;34.60;;;;;;5065449;28;20203;-69
2022/03/27 10:12:31;;;;;;;11.25;10.05;;;33.70;34.10;;;;;;5068313;28;20548;-70
2022/03/27 10:15:03;;;;;;;11.05;9.63;;;33.90;34.40;;;;;;5069401;28;20632;-71
2022/03/27 10:17:30;;;;;;;11.30;9.75;;;33.60;34.10;;;;;;5069198;28;20171;-70
2022/03/27 10:20:07;;;;;;;10.10;8.70;;;33.90;34.40;;;;;;5073041;28;20170;-71
2022/03/27 10:22:39;;;;;;;10.77;9.65;;;33.60;34.10;;;;;;5063219;28;20187;-71
2022/03/27 10:25:06;;;;;;;11.00;9.05;;;34.20;33.20;;;;;;5060852;28;20209;-71
2022/03/27 10:27:34;;;;;;;10.52;9.43;;;34.20;35.10;;;;;;5073275;28;20183;-71
2022/03/27 10:30:00;;;;;;;11.77;10.38;;;34.60;33.60;;;;;;5071741;28;20646;-71
2022/03/27 10:32:26;;;;;;;13.50;9.55;;;35.10;31.40;;;;;;5061407;28;20529;-71
2022/03/27 10:35:19;;;;;;;12.57;10.52;;;35.40;30.80;;;;;;5062964;28;20218;-71
2022/03/27 10:38:01;;;;;;;10.77;8.98;;;35.10;31.00;;;;;;5070586;28;20572;-71
2022/03/27 10:40:38;;;;;;;13.55;9.82;;;35.20;33.20;;;;;;5072320;28;20198;-71
2022/03/27 10:43:36;;;;;;;10.32;9.25;;;36.10;31.50;;;;;;5067891;28;20179;-70
2022/03/27 10:46:25;;;;;;;10.50;9.40;;;36.00;31.80;;;;;;5066310;28;20213;-70
2022/03/27 10:48:53;;;;;;;9.80;7.95;;;36.20;31.30;;;;;;5064775;28;20179;-70
2022/03/27 10:51:25;;;;;;;18.55;16.92;;;37.10;30.90;;;;;;5065612;28;20203;-69
2022/03/27 10:54:01;;;;;;;14.02;12.60;;;38.40;29.90;;;;;;5063543;28;20211;-69
2022/03/27 10:56:41;;;;;;;32.13;29.35;;;38.80;29.90;;;;;;5066107;28;20273;-67
2022/03/27 10:59:08;;;;;;;10.02;8.80;;;38.40;30.30;;;;;;5066502;28;20181;-67
2022/03/27 11:01:41;;;;;;;10.60;9.35;;;37.30;29.90;;;;;;5060967;28;20527;-68
2022/03/27 11:04:09;;;;;;;11.68;8.93;;;37.40;29.10;;;;;;5069392;28;20580;-68
2022/03/27 11:06:37;;;;;;;11.23;8.50;;;37.80;28.70;;;;;;5065014;28;20249;-69
2022/03/27 11:09:06;;;;;;;11.15;8.65;;;37.10;30.80;;;;;;5058257;28;20187;-69
2022/03/27 11:11:37;;;;;;;12.02;10.77;;;36.70;31.00;;;;;;5059981;28;20179;-69
2022/03/27 11:14:04;;;;;;;10.00;9.07;;;36.60;30.00;;;;;;5058951;28;20215;-69
2022/03/27 11:16:30;;;;;;;12.38;9.20;;;38.00;29.40;;;;;;5066779;28;20669;-69
2022/03/27 11:18:56;;;;;;;10.20;9.18;;;37.30;29.40;;;;;;5068196;28;20190;-68
2022/03/27 11:21:28;;;;;;;10.13;9.23;;;36.60;29.70;;;;;;5066500;28;20638;-68
2022/03/27 11:24:15;;;;;;;9.65;8.00;;;36.70;31.50;;;;;;5065033;28;20175;-68
2022/03/27 11:26:41;;;;;;;11.02;8.73;;;36.80;31.90;;;;;;5057549;28;20251;-69
2022/03/27 11:29:21;;;;;;;9.82;8.30;;;37.60;29.80;;;;;;5068853;28;20559;-70
2022/03/27 11:32:08;;;;;;;9.60;8.70;;;37.20;31.30;;;;;;5065167;28;20382;-69
2022/03/27 11:34:35;;;;;;;9.32;8.10;;;37.70;29.70;;;;;;5069039;28;20233;-68
2022/03/27 11:37:25;;;;;;;9.85;8.90;;;38.50;29.70;;;;;;5058350;28;20694;-69
2022/03/27 11:39:52;;;;;;;10.73;8.88;;;38.70;29.30;;;;;;5066494;28;20240;-69
2022/03/27 11:42:31;;;;;;;8.98;8.18;;;37.70;29.50;;;;;;5062643;28;20188;-69
2022/03/27 11:45:18;;;;;;;9.35;7.40;;;37.40;29.80;;;;;;5062358;28;20229;-69
2022/03/27 11:47:50;;;;;;;10.25;8.02;;;37.40;29.80;;;;;;5065541;28;20248;-69
2022/03/27 11:50:23;;;;;;;9.98;8.90;;;37.90;30.10;;;;;;5061616;28;20511;-68
2022/03/27 11:52:49;;;;;;;8.80;7.95;;;37.70;29.80;;;;;;5069880;28;20289;-68
2022/03/27 11:55:14;;;;;;;8.45;7.65;;;37.50;30.70;;;;;;5065061;28;20276;-68
2022/03/27 11:58:10;;;;;;;8.57;7.68;;;37.70;29.50;;;;;;5069228;28;20650;-68
2022/03/27 12:00:38;;;;;;;9.10;8.20;;;38.40;28.90;;;;;;5065129;28;20183;-68
2022/03/27 12:03:25;;;;;;;8.93;7.82;;;36.40;32.90;;;;;;5063795;28;20186;-68
2022/03/27 12:05:51;;;;;;;8.68;6.85;;;36.80;30.00;;;;;;5066009;28;20210;-67
2022/03/27 12:08:17;;;;;;;9.13;8.18;;;37.60;29.90;;;;;;5068084;28;20189;-67
2022/03/27 12:10:46;;;;;;;10.23;7.90;;;37.10;30.40;;;;;;5062201;28;20712;-67
2022/03/27 12:13:14;;;;;;;7.88;7.13;;;36.30;32.20;;;;;;5066964;28;20580;-68
2022/03/27 12:15:52;;;;;;;7.88;7.07;;;36.50;31.50;;;;;;5060298;28;20230;-68
2022/03/27 12:18:34;;;;;;;8.45;7.35;;;37.30;31.90;;;;;;5056560;28;20540;-68
2022/03/27 12:21:04;;;;;;;11.07;8.07;;;37.60;31.00;;;;;;5061792;28;20260;-69
2022/03/27 12:23:35;;;;;;;8.05;7.35;;;36.90;31.00;;;;;;5066145;28;20315;-69
2022/03/27 12:31:58;;;;;;;7.82;7.00;;;36.60;30.80;;;;;;5061127;28;20197;-69
2022/03/27 12:34:24;;;;;;;7.72;7.03;;;36.70;31.10;;;;;;5064735;28;20214;-68
2022/03/27 12:37:16;;;;;;;7.78;6.97;;;36.20;31.40;;;;;;5060257;28;20171;-67
2022/03/27 12:39:48;;;;;;;8.50;7.60;;;36.80;30.40;;;;;;5068519;28;20266;-67
2022/03/27 12:42:34;;;;;;;8.45;7.65;;;36.00;31.50;;;;;;5065909;28;20175;-68
2022/03/27 12:45:08;;;;;;;8.85;7.72;;;34.80;32.50;;;;;;5058529;28;20203;-68
2022/03/27 12:47:46;;;;;;;7.15;6.47;;;34.80;33.00;;;;;;5058494;28;20186;-68
2022/03/27 12:50:32;;;;;;;7.88;7.13;;;34.90;32.50;;;;;;5063305;28;20201;-68
2022/03/27 12:52:57;;;;;;;7.72;7.03;;;34.30;33.90;;;;;;5060116;28;20555;-68
2022/03/27 12:55:39;;;;;;;8.55;7.65;;;34.80;33.60;;;;;;5057606;28;20317;-69
2022/03/27 12:58:05;;;;;;;8.27;7.47;;;35.00;32.70;;;;;;5069201;28;20189;-70